createdAt,value
2023-03-06T00:00:54.354Z,15.03
2023-03-06T00:03:22.297Z,14.93
2023-03-06T00:05:49.372Z,15.73
2023-03-06T00:08:16.623Z,14.40
2023-03-06T00:10:43.867Z,14.40
2023-03-06T00:13:13.515Z,16.47
2023-03-06T00:15:41.080Z,17.07
2023-03-06T00:18:08.453Z,16.17
2023-03-06T00:20:36.248Z,17.20
2023-03-06T00:23:03.322Z,17.13
2023-03-06T00:25:30.436Z,18.27
2023-03-06T00:27:57.458Z,17.67
2023-03-06T00:30:25.254Z,19.23
2023-03-06T00:32:53.424Z,18.03
2023-03-06T00:35:20.468Z,18.53
2023-03-06T00:37:47.696Z,18.37
2023-03-06T00:40:17.991Z,19.13
2023-03-06T00:42:45.657Z,19.30
2023-03-06T00:45:12.920Z,18.80
2023-03-06T00:47:40.697Z,20.90
2023-03-06T00:50:08.599Z,20.00
2023-03-06T00:52:35.601Z,20.60
2023-03-06T00:55:02.533Z,19.90
2023-03-06T00:57:29.523Z,20.23
2023-03-06T00:59:57.499Z,20.40
2023-03-06T01:02:24.521Z,20.40
2023-03-06T01:04:54.528Z,19.53
2023-03-06T01:07:21.663Z,21.63
2023-03-06T01:09:48.683Z,23.13
2023-03-06T01:12:15.714Z,22.70
2023-03-06T01:14:42.758Z,23.60
2023-03-06T01:17:10.275Z,22.27
2023-03-06T01:19:37.327Z,23.50
2023-03-06T01:22:04.427Z,22.63
2023-03-06T01:24:31.854Z,24.30
2023-03-06T01:26:58.808Z,24.70
2023-03-06T01:29:26.509Z,25.73
2023-03-06T01:31:53.585Z,27.30
2023-03-06T01:34:20.691Z,26.53
2023-03-06T01:36:47.809Z,27.87
2023-03-06T01:39:14.712Z,29.37
2023-03-06T01:41:41.645Z,30.50
2023-03-06T01:44:13.616Z,29.83
2023-03-06T01:46:46.457Z,31.50
2023-03-06T01:49:16.116Z,31.07
2023-03-06T01:52:11.374Z,30.47
2023-03-06T01:54:48.381Z,29.60
2023-03-06T01:57:20.521Z,31.13
2023-03-06T01:59:53.048Z,30.73
2023-03-06T02:02:20.784Z,29.53
2023-03-06T02:04:48.689Z,31.03
2023-03-06T02:07:19.240Z,30.53
2023-03-06T02:09:46.556Z,30.77
2023-03-06T02:12:16.986Z,31.87
2023-03-06T02:14:44.376Z,30.43
2023-03-06T02:17:13.740Z,31.50
2023-03-06T02:19:55.726Z,31.83
2023-03-06T02:22:24.589Z,31.20
2023-03-06T02:25:28.163Z,32.07
2023-03-06T02:27:55.203Z,29.47
2023-03-06T02:30:25.263Z,30.73
2023-03-06T02:32:52.261Z,31.60
2023-03-06T02:35:22.910Z,32.00
2023-03-06T02:37:50.669Z,33.80
2023-03-06T02:40:20.140Z,30.83
2023-03-06T02:42:51.009Z,30.90
2023-03-06T02:45:36.909Z,19.60
2023-03-06T02:48:04.619Z,19.10
2023-03-06T02:50:33.050Z,17.87
2023-03-06T02:53:01.327Z,16.20
2023-03-06T02:55:30.949Z,16.83
2023-03-06T02:57:57.992Z,15.23
2023-03-06T03:00:25.531Z,15.90
2023-03-06T03:02:52.801Z,15.43
2023-03-06T03:05:20.260Z,13.30
2023-03-06T03:07:53.272Z,13.27
2023-03-06T03:10:20.930Z,13.17
2023-03-06T03:12:48.288Z,13.43
2023-03-06T03:15:16.243Z,13.57
2023-03-06T03:17:46.003Z,12.60
2023-03-06T03:20:17.028Z,11.93
2023-03-06T03:22:48.840Z,12.07
2023-03-06T03:25:16.052Z,11.73
2023-03-06T03:27:43.075Z,12.17
2023-03-06T03:30:11.799Z,13.13
2023-03-06T03:32:39.705Z,12.20
2023-03-06T03:35:08.230Z,13.73
2023-03-06T03:37:37.308Z,11.73
2023-03-06T03:40:06.650Z,12.17
2023-03-06T03:42:33.714Z,11.97
2023-03-06T03:45:00.763Z,11.47
2023-03-06T03:47:27.797Z,10.63
2023-03-06T03:49:54.835Z,10.60
2023-03-06T03:52:22.055Z,11.30
2023-03-06T03:54:49.252Z,12.80
2023-03-06T03:57:16.551Z,17.13
2023-03-06T03:59:48.745Z,13.50
2023-03-06T04:02:29.966Z,11.90
2023-03-06T04:05:09.086Z,12.27
2023-03-06T04:07:36.046Z,11.30
2023-03-06T04:10:04.048Z,19.43
2023-03-06T04:12:31.222Z,23.43
2023-03-06T04:14:58.347Z,21.90
2023-03-06T04:17:26.401Z,25.97
2023-03-06T04:19:54.817Z,27.67
2023-03-06T04:22:22.615Z,23.97
2023-03-06T04:24:49.960Z,20.07
2023-03-06T04:27:17.961Z,15.47
2023-03-06T04:29:45.173Z,16.93
2023-03-06T04:32:14.835Z,20.87
2023-03-06T04:34:42.247Z,29.97
2023-03-06T04:37:22.393Z,17.70
2023-03-06T04:39:52.875Z,16.67
2023-03-06T04:42:20.050Z,15.00
2023-03-06T04:44:48.154Z,17.00
2023-03-06T04:47:18.141Z,24.50
2023-03-06T04:49:48.736Z,23.33
2023-03-06T04:52:15.832Z,16.33
2023-03-06T04:54:43.128Z,21.57
2023-03-06T04:57:10.725Z,18.70
2023-03-06T04:59:39.219Z,15.83
2023-03-06T05:02:06.255Z,15.23
2023-03-06T05:04:33.226Z,18.27
2023-03-06T05:07:00.141Z,16.53
2023-03-06T05:09:27.148Z,15.93
2023-03-06T05:11:54.070Z,15.30
2023-03-06T05:14:21.044Z,16.07
2023-03-06T05:16:48.029Z,16.67
2023-03-06T05:19:15.385Z,16.67
2023-03-06T05:21:42.345Z,16.20
2023-03-06T05:24:10.017Z,16.03
2023-03-06T05:26:36.911Z,16.27
2023-03-06T05:29:03.939Z,17.00
2023-03-06T05:31:31.081Z,16.47
2023-03-06T05:33:58.945Z,17.40
2023-03-06T05:36:25.932Z,16.83
2023-03-06T05:38:53.008Z,16.53
2023-03-06T05:41:19.951Z,18.53
2023-03-06T05:43:47.533Z,16.53
2023-03-06T05:46:14.567Z,16.63
2023-03-06T05:48:41.556Z,19.37
2023-03-06T05:51:09.625Z,20.07
2023-03-06T05:53:36.529Z,26.07
2023-03-06T05:56:06.402Z,28.93
2023-03-06T05:58:34.224Z,20.77
2023-03-06T06:01:08.060Z,22.50
2023-03-06T06:03:35.657Z,16.57
2023-03-06T06:06:09.822Z,17.23
2023-03-06T06:08:37.353Z,16.30
2023-03-06T06:11:08.503Z,16.73
2023-03-06T06:13:36.289Z,14.60
2023-03-06T06:16:16.224Z,13.80
2023-03-06T06:18:43.799Z,12.70
2023-03-06T06:21:13.382Z,14.70
2023-03-06T06:23:40.652Z,13.70
2023-03-06T06:26:09.384Z,13.23
2023-03-06T06:28:36.873Z,13.77
2023-03-06T06:31:12.317Z,15.97
2023-03-06T06:33:40.503Z,16.57
2023-03-06T06:36:16.268Z,14.30
2023-03-06T06:38:43.450Z,15.83
2023-03-06T06:43:59.093Z,14.93
2023-03-06T06:47:17.902Z,13.67
2023-03-06T06:49:14.727Z,16.33
2023-03-06T06:51:41.891Z,13.27
2023-03-06T06:54:09.819Z,15.83
2023-03-06T06:56:36.736Z,12.57
2023-03-06T06:59:16.232Z,14.47
2023-03-06T07:01:44.195Z,13.53
2023-03-06T07:04:13.628Z,13.60
2023-03-06T07:06:41.275Z,13.53
2023-03-06T07:09:08.403Z,12.37
2023-03-06T07:11:37.085Z,13.57
2023-03-06T07:14:03.997Z,14.27
2023-03-06T07:16:30.883Z,14.40
2023-03-06T07:18:57.769Z,14.30
2023-03-06T07:21:24.678Z,12.20
2023-03-06T07:23:51.616Z,12.90
2023-03-06T07:26:18.523Z,11.83
2023-03-06T07:28:52.270Z,11.20
2023-03-06T07:31:26.003Z,10.37
2023-03-06T07:33:54.580Z,10.33
2023-03-06T07:36:23.149Z,10.73
2023-03-06T07:38:50.322Z,11.03
2023-03-06T07:41:21.782Z,10.90
2023-03-06T07:43:50.181Z,9.93
2023-03-06T07:46:17.818Z,10.97
2023-03-06T07:48:44.864Z,11.37
2023-03-06T07:51:21.054Z,11.03
2023-03-06T07:53:49.178Z,13.10
2023-03-06T07:56:16.323Z,13.77
2023-03-06T07:58:45.071Z,14.30
2023-03-06T08:01:17.859Z,15.27
2023-03-06T08:03:45.015Z,18.27
2023-03-06T08:06:13.387Z,18.23
2023-03-06T08:08:42.739Z,19.70
2023-03-06T08:11:11.269Z,19.90
2023-03-06T08:13:38.561Z,21.00
2023-03-06T08:16:06.672Z,22.07
2023-03-06T08:18:34.389Z,21.20
2023-03-06T08:21:02.705Z,22.17
2023-03-06T08:23:29.833Z,21.33
2023-03-06T08:26:01.414Z,23.03
2023-03-06T08:28:28.949Z,23.20
2023-03-06T08:30:57.412Z,25.73
2023-03-06T08:33:25.131Z,26.07
2023-03-06T08:35:52.908Z,24.97
2023-03-06T08:38:19.803Z,25.67
2023-03-06T08:40:46.723Z,27.03
2023-03-06T08:43:14.479Z,25.93
2023-03-06T08:45:41.460Z,26.00
2023-03-06T08:48:08.377Z,23.90
2023-03-06T08:50:35.335Z,24.33
2023-03-06T08:53:02.295Z,23.40
2023-03-06T08:55:30.146Z,24.80
2023-03-06T08:57:58.561Z,22.90
2023-03-06T09:00:25.730Z,24.17
2023-03-06T09:02:55.697Z,24.30
2023-03-06T09:05:22.692Z,24.63
2023-03-06T09:07:49.717Z,24.23
2023-03-06T09:10:19.555Z,25.23
2023-03-06T09:12:52.491Z,25.63
2023-03-06T09:15:22.208Z,27.83
2023-03-06T09:17:49.444Z,26.80
2023-03-06T09:20:17.430Z,26.60
2023-03-06T09:22:45.707Z,26.63
2023-03-06T09:25:13.934Z,26.27
2023-03-06T09:27:41.697Z,28.93
2023-03-06T09:30:09.973Z,30.80
2023-03-06T09:32:36.968Z,31.73
2023-03-06T09:35:03.995Z,27.53
2023-03-06T09:37:31.097Z,28.40
2023-03-06T09:39:58.074Z,28.53
2023-03-06T09:42:25.603Z,28.30
2023-03-06T09:45:03.800Z,28.93
2023-03-06T09:47:55.714Z,28.13
2023-03-06T09:50:38.665Z,28.93
2023-03-06T09:53:11.805Z,31.33
2023-03-06T09:55:41.086Z,30.60
2023-03-06T09:58:25.961Z,32.93
2023-03-06T10:01:17.296Z,32.77
2023-03-06T10:03:56.125Z,32.13
2023-03-06T10:06:30.189Z,33.60
2023-03-06T10:08:59.998Z,39.50
2023-03-06T10:11:32.310Z,32.10
2023-03-06T10:14:14.010Z,37.03
2023-03-06T10:16:41.274Z,34.53
2023-03-06T10:19:17.760Z,31.03
2023-03-06T10:22:06.222Z,31.30
2023-03-06T10:25:13.818Z,28.50
2023-03-06T10:28:11.950Z,25.50
2023-03-06T10:30:58.760Z,21.90
2023-03-06T10:33:51.364Z,20.90
2023-03-06T10:36:19.973Z,21.93
2023-03-06T10:38:48.707Z,19.67
2023-03-06T10:41:28.489Z,16.57
2023-03-06T10:44:01.404Z,17.70
2023-03-06T10:46:36.375Z,16.60
2023-03-06T10:49:06.306Z,17.70
2023-03-06T10:51:35.503Z,17.83
2023-03-06T10:54:24.184Z,14.70
2023-03-06T10:56:51.195Z,13.40
2023-03-06T10:59:28.320Z,13.03
2023-03-06T11:01:58.630Z,11.50
2023-03-06T11:04:30.335Z,13.93
2023-03-06T11:07:19.090Z,10.27
2023-03-06T11:09:58.010Z,10.63
2023-03-06T11:12:39.369Z,9.17
2023-03-06T11:15:32.373Z,9.70
2023-03-06T11:17:59.388Z,9.60
2023-03-06T11:20:44.665Z,9.27
2023-03-06T11:23:54.577Z,9.90
2023-03-06T11:26:51.366Z,11.13
2023-03-06T11:29:36.861Z,11.37
2023-03-06T11:32:15.061Z,8.83
2023-03-06T11:34:50.843Z,7.93
2023-03-06T11:37:32.932Z,8.47
2023-03-06T11:40:05.330Z,9.27
2023-03-06T11:42:35.972Z,10.03
2023-03-06T11:45:29.041Z,9.97
2023-03-06T11:48:20.499Z,11.43
2023-03-06T11:50:53.630Z,12.93
2023-03-06T11:53:26.425Z,12.90
2023-03-06T11:56:31.730Z,13.00
2023-03-06T11:59:36.344Z,12.97
2023-03-06T12:02:43.050Z,9.13
2023-03-06T12:05:42.384Z,8.83
2023-03-06T12:08:45.443Z,9.43
2023-03-06T12:11:24.686Z,8.77
2023-03-06T12:14:17.518Z,9.80
2023-03-06T12:17:09.749Z,9.63
2023-03-06T12:19:54.413Z,9.13
2023-03-06T12:22:24.316Z,9.07
2023-03-06T12:25:18.048Z,7.63
2023-03-06T12:27:51.950Z,8.73
2023-03-06T12:30:54.163Z,8.93
2023-03-06T12:33:25.623Z,10.40
2023-03-06T12:36:17.147Z,10.03
2023-03-06T12:39:01.265Z,8.67
2023-03-06T12:41:37.325Z,10.00
2023-03-06T12:44:19.867Z,9.70
2023-03-06T12:47:15.607Z,10.03
2023-03-06T12:49:48.563Z,10.33
2023-03-06T12:52:29.654Z,9.90
2023-03-06T12:54:59.516Z,9.50
2023-03-06T12:57:26.764Z,10.20
2023-03-06T12:59:54.919Z,9.70
2023-03-06T13:03:03.957Z,9.97
2023-03-06T13:05:37.112Z,10.93
2023-03-06T13:08:10.103Z,10.30
2023-03-06T13:10:40.794Z,10.90
2023-03-06T13:13:32.329Z,11.10
2023-03-06T13:16:10.680Z,10.67
2023-03-06T13:18:37.825Z,10.03
2023-03-06T13:21:04.883Z,10.27
2023-03-06T13:23:38.295Z,9.23
2023-03-06T13:26:10.550Z,9.20
2023-03-06T13:28:50.205Z,10.17
2023-03-06T13:31:38.402Z,9.70
2023-03-06T13:34:26.257Z,10.10
2023-03-06T13:36:53.166Z,8.37
2023-03-06T13:39:20.051Z,8.17
2023-03-06T13:41:52.415Z,8.60
2023-03-06T13:44:25.496Z,11.67
2023-03-06T13:47:19.499Z,12.83
2023-03-06T13:49:47.953Z,8.83
2023-03-06T13:52:44.601Z,7.47
2023-03-06T13:55:20.505Z,6.00
2023-03-06T13:58:11.904Z,6.90
2023-03-06T14:00:58.428Z,6.43
2023-03-06T14:03:55.254Z,9.60
2023-03-06T14:06:34.489Z,6.60
2023-03-06T14:09:07.991Z,7.50
2023-03-06T14:11:37.442Z,7.20
2023-03-06T14:14:04.405Z,7.73
2023-03-06T14:16:49.447Z,25.17
2023-03-06T14:19:18.709Z,11.03
2023-03-06T14:21:47.685Z,24.03
2023-03-06T14:24:20.256Z,8.90
2023-03-06T14:26:51.673Z,10.10
2023-03-06T14:29:21.864Z,19.13
2023-03-06T14:32:00.766Z,10.37
2023-03-06T14:34:30.415Z,8.97
2023-03-06T14:37:18.157Z,12.30
2023-03-06T14:39:46.708Z,10.10
2023-03-06T14:42:26.633Z,15.87
2023-03-06T14:45:15.895Z,8.87
2023-03-06T14:47:44.424Z,13.30
2023-03-06T14:50:26.702Z,25.17
2023-03-06T14:53:06.146Z,10.93
2023-03-06T14:55:35.581Z,8.07
2023-03-06T14:58:14.221Z,6.93
2023-03-06T15:00:45.226Z,6.97
2023-03-06T15:03:25.201Z,12.53
2023-03-06T15:05:52.849Z,9.97
2023-03-06T15:08:25.603Z,8.10
2023-03-06T15:11:04.174Z,9.20
2023-03-06T15:13:32.964Z,14.77
2023-03-06T15:16:13.597Z,10.40
2023-03-06T15:18:54.271Z,6.33
2023-03-06T15:21:22.800Z,6.83
2023-03-06T15:23:51.647Z,6.33
2023-03-06T15:26:37.748Z,6.20
2023-03-06T15:29:11.048Z,6.20
2023-03-06T15:31:42.755Z,5.73
2023-03-06T15:34:09.713Z,6.80
2023-03-06T15:36:48.984Z,6.60
2023-03-06T15:39:38.254Z,6.20
2023-03-06T15:42:20.220Z,6.83
2023-03-06T15:44:56.452Z,6.60
2023-03-06T15:47:23.937Z,7.33
2023-03-06T15:49:53.062Z,6.80
2023-03-06T15:52:21.374Z,6.60
2023-03-06T15:54:48.339Z,6.93
2023-03-06T15:57:26.794Z,7.40
2023-03-06T15:59:54.192Z,6.53
2023-03-06T16:02:22.840Z,6.20
2023-03-06T16:04:50.456Z,5.37
2023-03-06T16:07:17.535Z,5.87
2023-03-06T16:09:44.820Z,5.83
2023-03-06T16:12:17.167Z,6.87
2023-03-06T16:14:45.184Z,6.00
2023-03-06T16:17:12.811Z,5.33
2023-03-06T16:19:40.244Z,7.17
2023-03-06T16:22:07.381Z,14.27
2023-03-06T16:24:34.298Z,13.67
2023-03-06T16:27:02.620Z,8.10
2023-03-06T16:29:30.265Z,11.47
2023-03-06T16:31:58.694Z,12.70
2023-03-06T16:34:25.654Z,16.77
2023-03-06T16:36:52.878Z,18.80
2023-03-06T16:39:22.070Z,22.93
2023-03-06T16:41:51.968Z,20.07
2023-03-06T16:44:19.528Z,10.87
2023-03-06T16:46:48.812Z,15.37
2023-03-06T16:49:21.707Z,11.77
2023-03-06T16:51:49.197Z,8.63
2023-03-06T16:54:16.181Z,12.43
2023-03-06T16:56:43.292Z,11.57
2023-03-06T16:59:10.709Z,9.57
2023-03-06T17:01:37.942Z,10.83
2023-03-06T17:04:04.918Z,12.73
2023-03-06T17:06:31.881Z,8.67
2023-03-06T17:08:59.855Z,8.00
2023-03-06T17:11:27.471Z,10.60
2023-03-06T17:13:55.447Z,20.33
2023-03-06T17:16:22.482Z,10.37
2023-03-06T17:18:49.765Z,19.63
2023-03-06T17:21:17.007Z,17.37
2023-03-06T17:23:44.528Z,15.03
2023-03-06T17:26:18.844Z,16.47
2023-03-06T17:28:46.531Z,17.13
2023-03-06T17:31:18.657Z,12.87
2023-03-06T17:33:46.412Z,9.37
2023-03-06T17:36:14.581Z,8.67
2023-03-06T17:38:42.332Z,11.23
2023-03-06T17:41:10.815Z,13.20
2023-03-06T17:43:38.410Z,13.97
2023-03-06T17:46:07.073Z,14.90
2023-03-06T17:48:34.894Z,14.77
2023-03-06T17:51:02.692Z,16.63
2023-03-06T17:53:29.679Z,15.03
2023-03-06T17:55:59.649Z,18.17
2023-03-06T17:58:27.320Z,16.27
2023-03-06T18:00:54.415Z,16.00
2023-03-06T18:03:21.739Z,16.43
2023-03-06T18:05:57.872Z,15.70
2023-03-06T18:08:24.732Z,16.13
2023-03-06T18:10:51.629Z,16.50
2023-03-06T18:13:18.516Z,15.93
2023-03-06T18:15:45.425Z,16.03
2023-03-06T18:18:12.502Z,18.40
2023-03-06T18:20:42.633Z,15.33
2023-03-06T18:23:09.508Z,15.63
2023-03-06T18:25:36.395Z,16.60
2023-03-06T18:28:03.456Z,16.80
2023-03-06T18:30:30.378Z,18.70
2023-03-06T18:32:57.820Z,15.90
2023-03-06T18:35:24.805Z,15.70
2023-03-06T18:37:52.162Z,17.47
2023-03-06T18:40:19.323Z,17.67
2023-03-06T18:42:46.434Z,17.67
2023-03-06T18:45:13.389Z,19.13
2023-03-06T18:47:40.665Z,18.23
2023-03-06T18:50:08.894Z,19.40
2023-03-06T18:52:35.819Z,20.20
2023-03-06T18:55:03.646Z,18.23
2023-03-06T18:57:30.634Z,23.03
2023-03-06T18:59:57.550Z,18.87
2023-03-06T19:02:24.550Z,20.33
2023-03-06T19:04:52.839Z,20.27
2023-03-06T19:07:20.094Z,19.33
2023-03-06T19:09:49.046Z,21.70
2023-03-06T19:12:16.703Z,20.70
2023-03-06T19:14:44.324Z,20.40
2023-03-06T19:17:11.206Z,20.87
2023-03-06T19:19:38.977Z,21.17
2023-03-06T19:22:05.984Z,19.30
2023-03-06T19:24:32.872Z,20.57
2023-03-06T19:26:59.814Z,20.27
2023-03-06T19:29:26.779Z,22.17
2023-03-06T19:31:57.013Z,23.27
2023-03-06T19:34:24.181Z,25.77
2023-03-06T19:36:51.709Z,23.77
2023-03-06T19:39:18.820Z,24.27
2023-03-06T19:41:48.909Z,25.20
2023-03-06T19:44:16.471Z,21.83
2023-03-06T19:46:43.626Z,21.97
2023-03-06T19:49:18.104Z,22.97
2023-03-06T19:51:45.226Z,19.93
2023-03-06T19:54:13.301Z,26.97
2023-03-06T19:56:40.415Z,21.90
2023-03-06T19:59:07.309Z,21.73
2023-03-06T20:01:34.417Z,23.57
2023-03-06T20:04:01.795Z,25.83
2023-03-06T20:06:31.346Z,25.17
2023-03-06T20:08:58.272Z,29.87
2023-03-06T20:11:29.837Z,27.63
2023-03-06T20:13:58.765Z,26.43
2023-03-06T20:16:28.017Z,25.70
2023-03-06T20:18:58.680Z,21.87
2023-03-06T20:21:27.374Z,23.77
2023-03-06T20:23:56.971Z,24.77
2023-03-06T20:26:25.750Z,21.03
2023-03-06T20:28:52.824Z,19.83
2023-03-06T20:31:22.017Z,20.57
2023-03-06T20:33:50.939Z,18.13
2023-03-06T20:36:21.595Z,21.83
2023-03-06T20:38:49.285Z,19.90
2023-03-06T20:41:22.553Z,22.03
2023-03-06T20:43:50.907Z,20.60
2023-03-06T20:46:18.938Z,22.57
2023-03-06T20:48:49.150Z,20.83
2023-03-06T20:51:23.314Z,20.57
2023-03-06T20:53:53.038Z,18.87
2023-03-06T20:56:22.373Z,18.53
2023-03-06T20:58:50.238Z,21.43
2023-03-06T21:01:27.748Z,18.20
2023-03-06T21:03:56.881Z,19.43
2023-03-06T21:06:24.380Z,18.47
2023-03-06T21:08:51.386Z,18.40
2023-03-06T21:11:18.643Z,20.10
2023-03-06T21:13:46.055Z,16.77
2023-03-06T21:16:16.281Z,20.37
2023-03-06T21:18:43.568Z,18.93
2023-03-06T21:21:14.025Z,18.60
2023-03-06T21:23:41.059Z,17.17
2023-03-06T21:26:11.416Z,19.10
2023-03-06T21:28:39.811Z,17.90
2023-03-06T21:31:09.121Z,16.10
2023-03-06T21:33:36.727Z,18.87
2023-03-06T21:36:03.970Z,19.70
2023-03-06T21:38:31.181Z,17.17
2023-03-06T21:41:14.309Z,19.00
2023-03-06T21:43:42.666Z,16.83
2023-03-06T21:46:10.439Z,13.97
2023-03-06T21:48:37.585Z,18.17
2023-03-06T21:51:06.703Z,16.10
2023-03-06T21:53:33.754Z,16.77
2023-03-06T21:56:01.781Z,16.13
2023-03-06T21:58:29.744Z,16.23
2023-03-06T22:00:57.386Z,14.73
2023-03-06T22:03:24.765Z,16.27
2023-03-06T22:05:52.295Z,14.47
2023-03-06T22:08:28.078Z,16.17
2023-03-06T22:10:54.948Z,15.57
2023-03-06T22:13:22.993Z,15.47
2023-03-06T22:15:51.935Z,16.07
2023-03-06T22:18:19.228Z,14.47
2023-03-06T22:20:46.269Z,16.53
2023-03-06T22:23:13.375Z,16.40
2023-03-06T22:25:40.642Z,16.37
2023-03-06T22:28:07.845Z,16.30
2023-03-06T22:30:34.835Z,18.83
2023-03-06T22:33:01.863Z,15.53
2023-03-06T22:35:28.875Z,16.30
2023-03-06T22:37:56.074Z,15.30
2023-03-06T22:40:23.037Z,15.53
2023-03-06T22:42:49.981Z,17.57
2023-03-06T22:45:17.166Z,18.40
2023-03-06T22:47:44.190Z,16.23
2023-03-06T22:50:11.694Z,16.93
2023-03-06T22:52:38.690Z,17.90
2023-03-06T22:55:06.181Z,19.73
2023-03-06T22:57:33.212Z,18.97
2023-03-06T23:00:00.166Z,21.33
2023-03-06T23:02:33.051Z,17.77
2023-03-06T23:05:00.113Z,18.37
2023-03-06T23:07:27.064Z,20.27
2023-03-06T23:10:00.796Z,18.03
2023-03-06T23:12:46.656Z,15.80
2023-03-06T23:15:32.472Z,18.50
2023-03-06T23:18:17.843Z,16.80
2023-03-06T23:21:12.304Z,16.93
2023-03-06T23:23:57.589Z,18.23
2023-03-06T23:26:31.596Z,19.20
2023-03-06T23:28:58.858Z,17.83
2023-03-06T23:31:28.822Z,14.37
2023-03-06T23:34:00.792Z,16.30
2023-03-06T23:36:28.509Z,15.53
2023-03-06T23:38:55.843Z,17.73
2023-03-06T23:41:23.808Z,16.40
2023-03-06T23:43:53.460Z,14.50
2023-03-06T23:46:21.797Z,16.93
2023-03-06T23:48:48.876Z,16.07
2023-03-06T23:51:18.782Z,14.83
2023-03-06T23:53:47.343Z,14.03
2023-03-06T23:56:14.446Z,16.57
2023-03-06T23:58:41.519Z,15.80
